sensor_id;sensor_type;location;lat;lon;timestamp;pressure;altitude;pressure_sealevel;temperature
45393;BMP280;31129;44.810;10.334;2023-04-24T00:00:13;99824.16;;;18.05
45393;BMP280;31129;44.810;10.334;2023-04-24T00:02:41;99827.03;;;18.00
45393;BMP280;31129;44.810;10.334;2023-04-24T00:05:15;99818.78;;;17.79
45393;BMP280;31129;44.810;10.334;2023-04-24T00:07:41;99822.13;;;17.85
45393;BMP280;31129;44.810;10.334;2023-04-24T00:10:07;99829.09;;;17.58
45393;BMP280;31129;44.810;10.334;2023-04-24T00:12:33;99823.97;;;17.62
45393;BMP280;31129;44.810;10.334;2023-04-24T00:14:59;99833.00;;;17.62
45393;BMP280;31129;44.810;10.334;2023-04-24T00:17:24;99841.28;;;17.62
45393;BMP280;31129;44.810;10.334;2023-04-24T00:19:50;99860.69;;;17.57
45393;BMP280;31129;44.810;10.334;2023-04-24T00:22:17;99864.00;;;17.55
45393;BMP280;31129;44.810;10.334;2023-04-24T00:24:42;99867.03;;;17.65
45393;BMP280;31129;44.810;10.334;2023-04-24T00:27:08;99869.56;;;17.76
45393;BMP280;31129;44.810;10.334;2023-04-24T00:29:33;99869.69;;;17.91
45393;BMP280;31129;44.810;10.334;2023-04-24T00:31:59;99855.09;;;17.49
45393;BMP280;31129;44.810;10.334;2023-04-24T00:34:24;99837.97;;;17.43
45393;BMP280;31129;44.810;10.334;2023-04-24T00:36:50;99825.53;;;17.16
45393;BMP280;31129;44.810;10.334;2023-04-24T00:39:21;99823.75;;;17.05
45393;BMP280;31129;44.810;10.334;2023-04-24T00:41:47;99820.50;;;16.93
45393;BMP280;31129;44.810;10.334;2023-04-24T00:44:14;99823.25;;;16.93
45393;BMP280;31129;44.810;10.334;2023-04-24T00:46:39;99821.91;;;16.87
45393;BMP280;31129;44.810;10.334;2023-04-24T00:49:05;99824.44;;;16.85
45393;BMP280;31129;44.810;10.334;2023-04-24T00:51:32;99810.66;;;16.85
45393;BMP280;31129;44.810;10.334;2023-04-24T00:53:58;99812.25;;;16.80
45393;BMP280;31129;44.810;10.334;2023-04-24T00:56:24;99798.72;;;16.69
45393;BMP280;31129;44.810;10.334;2023-04-24T00:58:49;99815.47;;;16.71
45393;BMP280;31129;44.810;10.334;2023-04-24T01:01:15;99813.97;;;16.70
45393;BMP280;31129;44.810;10.334;2023-04-24T01:03:41;99809.09;;;16.76
45393;BMP280;31129;44.810;10.334;2023-04-24T01:06:06;99802.31;;;16.77
45393;BMP280;31129;44.810;10.334;2023-04-24T01:08:32;99801.78;;;16.66
45393;BMP280;31129;44.810;10.334;2023-04-24T01:10:59;99796.91;;;16.72
45393;BMP280;31129;44.810;10.334;2023-04-24T01:13:25;99785.69;;;16.70
45393;BMP280;31129;44.810;10.334;2023-04-24T01:15:51;99774.75;;;16.64
45393;BMP280;31129;44.810;10.334;2023-04-24T01:18:16;99775.41;;;16.70
45393;BMP280;31129;44.810;10.334;2023-04-24T01:20:42;99783.13;;;16.72
45393;BMP280;31129;44.810;10.334;2023-04-24T01:23:09;99779.44;;;16.69
45393;BMP280;31129;44.810;10.334;2023-04-24T01:25:36;99769.91;;;16.57
45393;BMP280;31129;44.810;10.334;2023-04-24T01:28:01;99767.69;;;16.55
45393;BMP280;31129;44.810;10.334;2023-04-24T01:30:27;99763.34;;;16.47
45393;BMP280;31129;44.810;10.334;2023-04-24T01:32:53;99771.28;;;16.50
45393;BMP280;31129;44.810;10.334;2023-04-24T01:35:22;99790.06;;;16.39
45393;BMP280;31129;44.810;10.334;2023-04-24T01:37:47;99787.72;;;16.56
45393;BMP280;31129;44.810;10.334;2023-04-24T01:40:12;99784.00;;;16.53
45393;BMP280;31129;44.810;10.334;2023-04-24T01:42:38;99786.25;;;16.42
45393;BMP280;31129;44.810;10.334;2023-04-24T01:45:10;99782.63;;;16.34
45393;BMP280;31129;44.810;10.334;2023-04-24T01:47:36;99766.22;;;16.28
45393;BMP280;31129;44.810;10.334;2023-04-24T01:50:01;99759.44;;;16.42
45393;BMP280;31129;44.810;10.334;2023-04-24T01:52:27;99758.91;;;16.31
45393;BMP280;31129;44.810;10.334;2023-04-24T01:54:54;99758.47;;;16.27
45393;BMP280;31129;44.810;10.334;2023-04-24T01:57:22;99736.56;;;15.82
45393;BMP280;31129;44.810;10.334;2023-04-24T01:59:47;99754.97;;;16.00
45393;BMP280;31129;44.810;10.334;2023-04-24T02:02:13;99764.41;;;16.04
45393;BMP280;31129;44.810;10.334;2023-04-24T02:04:39;99750.31;;;15.95
45393;BMP280;31129;44.810;10.334;2023-04-24T02:07:04;99754.44;;;15.88
45393;BMP280;31129;44.810;10.334;2023-04-24T02:09:31;99756.69;;;16.29
45393;BMP280;31129;44.810;10.334;2023-04-24T02:11:56;99760.16;;;16.16
45393;BMP280;31129;44.810;10.334;2023-04-24T02:14:23;99764.25;;;15.84
45393;BMP280;31129;44.810;10.334;2023-04-24T02:16:48;99758.06;;;15.96
45393;BMP280;31129;44.810;10.334;2023-04-24T02:19:13;99771.91;;;15.91
45393;BMP280;31129;44.810;10.334;2023-04-24T02:21:39;99787.09;;;16.10
45393;BMP280;31129;44.810;10.334;2023-04-24T02:24:07;99775.13;;;16.08
45393;BMP280;31129;44.810;10.334;2023-04-24T02:26:32;99781.72;;;15.86
45393;BMP280;31129;44.810;10.334;2023-04-24T02:28:58;99778.00;;;15.84
45393;BMP280;31129;44.810;10.334;2023-04-24T02:31:23;99770.31;;;15.82
45393;BMP280;31129;44.810;10.334;2023-04-24T02:33:49;99778.38;;;15.93
45393;BMP280;31129;44.810;10.334;2023-04-24T02:36:15;99778.91;;;15.92
45393;BMP280;31129;44.810;10.334;2023-04-24T02:38:40;99775.09;;;15.95
45393;BMP280;31129;44.810;10.334;2023-04-24T02:41:06;99786.25;;;15.84
45393;BMP280;31129;44.810;10.334;2023-04-24T02:43:32;99784.44;;;15.73
45393;BMP280;31129;44.810;10.334;2023-04-24T02:45:58;99794.69;;;15.59
45393;BMP280;31129;44.810;10.334;2023-04-24T02:48:24;99794.25;;;15.55
45393;BMP280;31129;44.810;10.334;2023-04-24T02:50:50;99782.69;;;15.57
45393;BMP280;31129;44.810;10.334;2023-04-24T02:53:16;99800.69;;;15.58
45393;BMP280;31129;44.810;10.334;2023-04-24T02:55:41;99805.19;;;15.74
45393;BMP280;31129;44.810;10.334;2023-04-24T02:58:07;99790.31;;;15.83
45393;BMP280;31129;44.810;10.334;2023-04-24T03:00:32;99790.03;;;15.99
45393;BMP280;31129;44.810;10.334;2023-04-24T03:02:58;99783.50;;;15.70
45393;BMP280;31129;44.810;10.334;2023-04-24T03:05:23;99773.84;;;15.64
45393;BMP280;31129;44.810;10.334;2023-04-24T03:07:49;99770.41;;;15.76
45393;BMP280;31129;44.810;10.334;2023-04-24T03:10:15;99767.78;;;15.52
45393;BMP280;31129;44.810;10.334;2023-04-24T03:12:40;99774.13;;;15.47
45393;BMP280;31129;44.810;10.334;2023-04-24T03:15:06;99777.84;;;15.50
45393;BMP280;31129;44.810;10.334;2023-04-24T03:17:39;99782.59;;;15.49
45393;BMP280;31129;44.810;10.334;2023-04-24T03:20:05;99788.25;;;15.70
45393;BMP280;31129;44.810;10.334;2023-04-24T03:22:31;99787.84;;;15.79
45393;BMP280;31129;44.810;10.334;2023-04-24T03:24:58;99785.44;;;15.75
45393;BMP280;31129;44.810;10.334;2023-04-24T03:27:24;99791.75;;;15.70
45393;BMP280;31129;44.810;10.334;2023-04-24T03:29:55;99793.47;;;15.87
45393;BMP280;31129;44.810;10.334;2023-04-24T03:32:25;99802.22;;;15.72
45393;BMP280;31129;44.810;10.334;2023-04-24T03:34:51;99804.53;;;15.68
45393;BMP280;31129;44.810;10.334;2023-04-24T03:37:16;99802.22;;;15.72
45393;BMP280;31129;44.810;10.334;2023-04-24T03:39:48;99808.78;;;15.69
45393;BMP280;31129;44.810;10.334;2023-04-24T03:42:15;99809.00;;;15.71
45393;BMP280;31129;44.810;10.334;2023-04-24T03:44:53;99808.34;;;15.65
45393;BMP280;31129;44.810;10.334;2023-04-24T03:47:22;99795.91;;;15.77
45393;BMP280;31129;44.810;10.334;2023-04-24T03:49:48;99789.66;;;15.76
45393;BMP280;31129;44.810;10.334;2023-04-24T03:52:14;99789.41;;;15.74
45393;BMP280;31129;44.810;10.334;2023-04-24T03:54:39;99788.78;;;15.68
45393;BMP280;31129;44.810;10.334;2023-04-24T03:57:05;99782.34;;;15.66
45393;BMP280;31129;44.810;10.334;2023-04-24T03:59:32;99788.72;;;15.87
45393;BMP280;31129;44.810;10.334;2023-04-24T04:02:07;99782.34;;;15.79
45393;BMP280;31129;44.810;10.334;2023-04-24T04:04:33;99775.88;;;15.63
45393;BMP280;31129;44.810;10.334;2023-04-24T04:06:59;99774.50;;;15.70
45393;BMP280;31129;44.810;10.334;2023-04-24T04:09:28;99781.78;;;15.67
45393;BMP280;31129;44.810;10.334;2023-04-24T04:11:54;99773.69;;;15.56
45393;BMP280;31129;44.810;10.334;2023-04-24T04:14:23;99782.66;;;15.44
45393;BMP280;31129;44.810;10.334;2023-04-24T04:16:49;99792.59;;;15.33
45393;BMP280;31129;44.810;10.334;2023-04-24T04:19:14;99792.84;;;15.49
45393;BMP280;31129;44.810;10.334;2023-04-24T04:21:40;99779.09;;;15.49
45393;BMP280;31129;44.810;10.334;2023-04-24T04:24:16;99772.03;;;15.53
45393;BMP280;31129;44.810;10.334;2023-04-24T04:26:44;99782.63;;;15.62
45393;BMP280;31129;44.810;10.334;2023-04-24T04:29:17;99780.09;;;15.64
45393;BMP280;31129;44.810;10.334;2023-04-24T04:31:44;99773.44;;;15.60
45393;BMP280;31129;44.810;10.334;2023-04-24T04:34:12;99780.69;;;15.57
45393;BMP280;31129;44.810;10.334;2023-04-24T04:36:40;99781.63;;;15.47
45393;BMP280;31129;44.810;10.334;2023-04-24T04:39:41;99774.41;;;15.44
45393;BMP280;31129;44.810;10.334;2023-04-24T04:42:19;99777.94;;;15.44
45393;BMP280;31129;44.810;10.334;2023-04-24T04:44:45;99784.38;;;15.47
45393;BMP280;31129;44.810;10.334;2023-04-24T04:47:16;99776.34;;;15.49
45393;BMP280;31129;44.810;10.334;2023-04-24T04:49:43;99782.66;;;15.44
45393;BMP280;31129;44.810;10.334;2023-04-24T04:52:19;99780.88;;;15.46
45393;BMP280;31129;44.810;10.334;2023-04-24T04:54:47;99766.47;;;15.40
45393;BMP280;31129;44.810;10.334;2023-04-24T04:57:13;99758.38;;;15.48
45393;BMP280;31129;44.810;10.334;2023-04-24T04:59:38;99749.06;;;15.51
45393;BMP280;31129;44.810;10.334;2023-04-24T05:02:09;99740.50;;;15.54
45393;BMP280;31129;44.810;10.334;2023-04-24T05:04:35;99723.88;;;15.47
45393;BMP280;31129;44.810;10.334;2023-04-24T05:07:01;99724.41;;;15.45
45393;BMP280;31129;44.810;10.334;2023-04-24T05:09:30;99725.84;;;15.65
45393;BMP280;31129;44.810;10.334;2023-04-24T05:12:00;99733.19;;;15.57
45393;BMP280;31129;44.810;10.334;2023-04-24T05:14:29;99733.53;;;15.53
45393;BMP280;31129;44.810;10.334;2023-04-24T05:16:54;99725.06;;;15.51
45393;BMP280;31129;44.810;10.334;2023-04-24T05:19:23;99724.72;;;15.41
45393;BMP280;31129;44.810;10.334;2023-04-24T05:21:49;99731.94;;;15.45
45393;BMP280;31129;44.810;10.334;2023-04-24T05:24:14;99737.94;;;15.43
45393;BMP280;31129;44.810;10.334;2023-04-24T05:26:59;99750.44;;;15.25
45393;BMP280;31129;44.810;10.334;2023-04-24T05:29:30;99754.47;;;15.24
45393;BMP280;31129;44.810;10.334;2023-04-24T05:31:57;99760.84;;;15.32
45393;BMP280;31129;44.810;10.334;2023-04-24T05:34:23;99761.16;;;15.10
45393;BMP280;31129;44.810;10.334;2023-04-24T05:36:52;99763.75;;;15.21
45393;BMP280;31129;44.810;10.334;2023-04-24T05:39:19;99760.69;;;15.25
45393;BMP280;31129;44.810;10.334;2023-04-24T05:41:45;99758.56;;;15.18
45393;BMP280;31129;44.810;10.334;2023-04-24T05:44:10;99752.69;;;15.08
45393;BMP280;31129;44.810;10.334;2023-04-24T05:46:35;99747.06;;;15.00
45393;BMP280;31129;44.810;10.334;2023-04-24T05:49:01;99757.69;;;15.10
45393;BMP280;31129;44.810;10.334;2023-04-24T05:51:28;99756.09;;;14.95
45393;BMP280;31129;44.810;10.334;2023-04-24T05:53:54;99761.78;;;15.03
45393;BMP280;31129;44.810;10.334;2023-04-24T05:56:19;99762.94;;;14.89
45393;BMP280;31129;44.810;10.334;2023-04-24T05:58:46;99764.22;;;14.88
45393;BMP280;31129;44.810;10.334;2023-04-24T06:01:12;99769.09;;;14.95
45393;BMP280;31129;44.810;10.334;2023-04-24T06:03:38;99779.13;;;14.92
45393;BMP280;31129;44.810;10.334;2023-04-24T06:06:06;99780.16;;;15.08
45393;BMP280;31129;44.810;10.334;2023-04-24T06:08:32;99786.50;;;15.03
45393;BMP280;31129;44.810;10.334;2023-04-24T06:11:01;99781.50;;;15.01
45393;BMP280;31129;44.810;10.334;2023-04-24T06:13:26;99794.34;;;15.12
45393;BMP280;31129;44.810;10.334;2023-04-24T06:16:15;99782.78;;;15.00
45393;BMP280;31129;44.810;10.334;2023-04-24T06:18:44;99789.25;;;15.03
45393;BMP280;31129;44.810;10.334;2023-04-24T06:21:13;99780.16;;;15.27
45393;BMP280;31129;44.810;10.334;2023-04-24T06:23:38;99793.22;;;15.39
45393;BMP280;31129;44.810;10.334;2023-04-24T06:26:04;99787.94;;;15.23
45393;BMP280;31129;44.810;10.334;2023-04-24T06:28:30;99786.34;;;15.33
45393;BMP280;31129;44.810;10.334;2023-04-24T06:30:57;99778.69;;;15.45
45393;BMP280;31129;44.810;10.334;2023-04-24T06:33:25;99773.09;;;15.50
45393;BMP280;31129;44.810;10.334;2023-04-24T06:35:51;99765.81;;;15.66
45393;BMP280;31129;44.810;10.334;2023-04-24T06:38:16;99770.25;;;15.69
45393;BMP280;31129;44.810;10.334;2023-04-24T06:40:42;99770.19;;;15.88
45393;BMP280;31129;44.810;10.334;2023-04-24T06:43:10;99774.22;;;16.00
45393;BMP280;31129;44.810;10.334;2023-04-24T06:45:36;99788.34;;;16.09
45393;BMP280;31129;44.810;10.334;2023-04-24T06:48:01;99786.88;;;16.08
45393;BMP280;31129;44.810;10.334;2023-04-24T06:50:26;99791.19;;;16.17
45393;BMP280;31129;44.810;10.334;2023-04-24T06:52:52;99805.50;;;16.15
45393;BMP280;31129;44.810;10.334;2023-04-24T06:55:17;99807.22;;;16.32
45393;BMP280;31129;44.810;10.334;2023-04-24T06:57:43;99809.41;;;16.20
45393;BMP280;31129;44.810;10.334;2023-04-24T07:00:09;99812.56;;;16.11
45393;BMP280;31129;44.810;10.334;2023-04-24T07:02:35;99811.84;;;16.24
45393;BMP280;31129;44.810;10.334;2023-04-24T07:05:00;99817.41;;;16.37
45393;BMP280;31129;44.810;10.334;2023-04-24T07:07:26;99824.78;;;16.55
45393;BMP280;31129;44.810;10.334;2023-04-24T07:09:52;99818.34;;;16.39
45393;BMP280;31129;44.810;10.334;2023-04-24T07:12:19;99817.50;;;16.58
45393;BMP280;31129;44.810;10.334;2023-04-24T07:14:47;99802.66;;;16.47
45393;BMP280;31129;44.810;10.334;2023-04-24T07:17:12;99815.34;;;16.50
45393;BMP280;31129;44.810;10.334;2023-04-24T07:19:38;99806.34;;;16.63
45393;BMP280;31129;44.810;10.334;2023-04-24T07:22:03;99815.34;;;16.64
45393;BMP280;31129;44.810;10.334;2023-04-24T07:24:29;99821.38;;;16.75
45393;BMP280;31129;44.810;10.334;2023-04-24T07:26:57;99826.56;;;16.66
45393;BMP280;31129;44.810;10.334;2023-04-24T07:29:22;99823.59;;;16.77
45393;BMP280;31129;44.810;10.334;2023-04-24T07:31:48;99819.38;;;16.76
45393;BMP280;31129;44.810;10.334;2023-04-24T07:34:14;99822.84;;;16.76
45393;BMP280;31129;44.810;10.334;2023-04-24T07:36:40;99830.91;;;16.74
45393;BMP280;31129;44.810;10.334;2023-04-24T07:39:06;99827.34;;;16.66
45393;BMP280;31129;44.810;10.334;2023-04-24T07:41:32;99829.94;;;16.85
45393;BMP280;31129;44.810;10.334;2023-04-24T07:43:58;99827.69;;;16.97
45393;BMP280;31129;44.810;10.334;2023-04-24T07:46:23;99833.19;;;16.97
45393;BMP280;31129;44.810;10.334;2023-04-24T07:48:49;99832.78;;;16.92
45393;BMP280;31129;44.810;10.334;2023-04-24T07:51:14;99839.38;;;17.03
45393;BMP280;31129;44.810;10.334;2023-04-24T07:53:41;99840.00;;;17.43
45393;BMP280;31129;44.810;10.334;2023-04-24T07:56:06;99834.91;;;17.13
45393;BMP280;31129;44.810;10.334;2023-04-24T07:58:32;99838.50;;;17.08
45393;BMP280;31129;44.810;10.334;2023-04-24T08:00:57;99841.59;;;17.04
45393;BMP280;31129;44.810;10.334;2023-04-24T08:03:22;99847.34;;;17.27
45393;BMP280;31129;44.810;10.334;2023-04-24T08:05:49;99838.81;;;17.38
45393;BMP280;31129;44.810;10.334;2023-04-24T08:08:16;99840.88;;;17.58
45393;BMP280;31129;44.810;10.334;2023-04-24T08:10:41;99831.97;;;17.52
45393;BMP280;31129;44.810;10.334;2023-04-24T08:13:07;99839.56;;;17.39
45393;BMP280;31129;44.810;10.334;2023-04-24T08:15:33;99832.16;;;17.54
45393;BMP280;31129;44.810;10.334;2023-04-24T08:17:58;99837.34;;;17.37
45393;BMP280;31129;44.810;10.334;2023-04-24T08:20:24;99840.63;;;17.36
45393;BMP280;31129;44.810;10.334;2023-04-24T08:22:54;99837.41;;;17.45
45393;BMP280;31129;44.810;10.334;2023-04-24T08:25:20;99849.06;;;17.51
45393;BMP280;31129;44.810;10.334;2023-04-24T08:27:45;99832.63;;;17.58
45393;BMP280;31129;44.810;10.334;2023-04-24T08:30:11;99830.91;;;17.76
45393;BMP280;31129;44.810;10.334;2023-04-24T08:32:37;99833.53;;;17.82
45393;BMP280;31129;44.810;10.334;2023-04-24T08:35:02;99840.25;;;17.94
45393;BMP280;31129;44.810;10.334;2023-04-24T08:37:28;99832.81;;;18.09
45393;BMP280;31129;44.810;10.334;2023-04-24T08:39:54;99826.50;;;18.01
45393;BMP280;31129;44.810;10.334;2023-04-24T08:42:20;99836.69;;;18.06
45393;BMP280;31129;44.810;10.334;2023-04-24T08:44:46;99830.16;;;18.25
45393;BMP280;31129;44.810;10.334;2023-04-24T08:47:14;99826.72;;;18.03
45393;BMP280;31129;44.810;10.334;2023-04-24T08:49:40;99820.41;;;18.31
45393;BMP280;31129;44.810;10.334;2023-04-24T08:52:05;99840.00;;;18.41
45393;BMP280;31129;44.810;10.334;2023-04-24T08:54:33;99856.31;;;18.24
45393;BMP280;31129;44.810;10.334;2023-04-24T08:57:00;99848.13;;;18.46
45393;BMP280;31129;44.810;10.334;2023-04-24T08:59:30;99849.19;;;18.36
45393;BMP280;31129;44.810;10.334;2023-04-24T09:01:56;99848.88;;;18.47
45393;BMP280;31129;44.810;10.334;2023-04-24T09:04:22;99844.72;;;18.54
45393;BMP280;31129;44.810;10.334;2023-04-24T09:06:51;99841.28;;;18.68
45393;BMP280;31129;44.810;10.334;2023-04-24T09:09:17;99840.84;;;18.57
45393;BMP280;31129;44.810;10.334;2023-04-24T09:11:46;99843.63;;;18.64
45393;BMP280;31129;44.810;10.334;2023-04-24T09:14:12;99844.66;;;18.89
45393;BMP280;31129;44.810;10.334;2023-04-24T09:16:38;99852.38;;;18.83
45393;BMP280;31129;44.810;10.334;2023-04-24T09:19:03;99852.25;;;18.97
45393;BMP280;31129;44.810;10.334;2023-04-24T09:21:33;99841.41;;;18.99
45393;BMP280;31129;44.810;10.334;2023-04-24T09:24:01;99843.78;;;19.02
45393;BMP280;31129;44.810;10.334;2023-04-24T09:26:31;99860.44;;;19.25
45393;BMP280;31129;44.810;10.334;2023-04-24T09:28:58;99851.91;;;19.08
45393;BMP280;31129;44.810;10.334;2023-04-24T09:31:23;99848.78;;;19.04
45393;BMP280;31129;44.810;10.334;2023-04-24T09:36:27;99847.91;;;19.16
45393;BMP280;31129;44.810;10.334;2023-04-24T09:38:57;99858.59;;;19.20
45393;BMP280;31129;44.810;10.334;2023-04-24T09:41:23;99852.38;;;19.42
45393;BMP280;31129;44.810;10.334;2023-04-24T09:43:48;99852.13;;;19.25
45393;BMP280;31129;44.810;10.334;2023-04-24T09:46:13;99848.84;;;19.26
45393;BMP280;31129;44.810;10.334;2023-04-24T09:48:39;99833.59;;;19.41
45393;BMP280;31129;44.810;10.334;2023-04-24T09:51:06;99835.03;;;19.49
45393;BMP280;31129;44.810;10.334;2023-04-24T09:53:45;99837.97;;;19.36
45393;BMP280;31129;44.810;10.334;2023-04-24T09:56:13;99850.53;;;19.60
45393;BMP280;31129;44.810;10.334;2023-04-24T09:58:39;99854.03;;;19.53
45393;BMP280;31129;44.810;10.334;2023-04-24T10:01:04;99841.88;;;19.79
45393;BMP280;31129;44.810;10.334;2023-04-24T10:03:31;99849.06;;;19.44
45393;BMP280;31129;44.810;10.334;2023-04-24T10:06:03;99838.34;;;19.48
45393;BMP280;31129;44.810;10.334;2023-04-24T10:08:36;99849.59;;;19.50
45393;BMP280;31129;44.810;10.334;2023-04-24T10:11:03;99846.66;;;19.70
45393;BMP280;31129;44.810;10.334;2023-04-24T10:13:28;99847.59;;;19.43
45393;BMP280;31129;44.810;10.334;2023-04-24T10:15:54;99842.63;;;19.71
45393;BMP280;31129;44.810;10.334;2023-04-24T10:18:23;99836.72;;;19.75
45393;BMP280;31129;44.810;10.334;2023-04-24T10:20:49;99843.34;;;19.57
45393;BMP280;31129;44.810;10.334;2023-04-24T10:23:15;99837.59;;;19.32
45393;BMP280;31129;44.810;10.334;2023-04-24T10:25:40;99847.75;;;19.52
45393;BMP280;31129;44.810;10.334;2023-04-24T10:28:06;99834.50;;;19.66
45393;BMP280;31129;44.810;10.334;2023-04-24T10:30:33;99844.44;;;19.77
45393;BMP280;31129;44.810;10.334;2023-04-24T10:33:07;99845.75;;;19.53
45393;BMP280;31129;44.810;10.334;2023-04-24T10:35:40;99840.94;;;19.68
45393;BMP280;31129;44.810;10.334;2023-04-24T10:38:11;99857.91;;;19.95
45393;BMP280;31129;44.810;10.334;2023-04-24T10:40:37;99842.06;;;19.88
45393;BMP280;31129;44.810;10.334;2023-04-24T10:43:04;99843.72;;;19.61
45393;BMP280;31129;44.810;10.334;2023-04-24T10:45:34;99843.16;;;19.78
45393;BMP280;31129;44.810;10.334;2023-04-24T10:48:07;99850.16;;;19.94
45393;BMP280;31129;44.810;10.334;2023-04-24T10:50:53;99838.88;;;19.99
45393;BMP280;31129;44.810;10.334;2023-04-24T10:53:24;99840.50;;;20.33
45393;BMP280;31129;44.810;10.334;2023-04-24T10:56:02;99838.09;;;20.29
45393;BMP280;31129;44.810;10.334;2023-04-24T10:58:52;99848.50;;;20.06
45393;BMP280;31129;44.810;10.334;2023-04-24T11:01:29;99833.88;;;20.13
45393;BMP280;31129;44.810;10.334;2023-04-24T11:04:02;99846.44;;;20.22
45393;BMP280;31129;44.810;10.334;2023-04-24T11:06:37;99843.81;;;20.31
45393;BMP280;31129;44.810;10.334;2023-04-24T11:09:06;99851.19;;;20.36
45393;BMP280;31129;44.810;10.334;2023-04-24T11:11:36;99827.88;;;20.47
45393;BMP280;31129;44.810;10.334;2023-04-24T11:14:04;99837.41;;;20.21
45393;BMP280;31129;44.810;10.334;2023-04-24T11:16:37;99839.00;;;20.32
45393;BMP280;31129;44.810;10.334;2023-04-24T11:19:18;99837.19;;;20.27
45393;BMP280;31129;44.810;10.334;2023-04-24T11:21:48;99829.91;;;20.54
45393;BMP280;31129;44.810;10.334;2023-04-24T11:32:19;99820.00;;;20.36
45393;BMP280;31129;44.810;10.334;2023-04-24T11:34:49;99829.78;;;20.29
45393;BMP280;31129;44.810;10.334;2023-04-24T11:37:15;99823.31;;;20.34
45393;BMP280;31129;44.810;10.334;2023-04-24T11:39:41;99813.66;;;20.50
45393;BMP280;31129;44.810;10.334;2023-04-24T11:42:07;99814.59;;;20.85
45393;BMP280;31129;44.810;10.334;2023-04-24T11:44:33;99814.81;;;20.80
45393;BMP280;31129;44.810;10.334;2023-04-24T11:46:59;99804.59;;;20.90
45393;BMP280;31129;44.810;10.334;2023-04-24T11:49:24;99810.75;;;20.81
45393;BMP280;31129;44.810;10.334;2023-04-24T11:51:50;99806.19;;;21.01
45393;BMP280;31129;44.810;10.334;2023-04-24T11:54:15;99824.00;;;20.90
45393;BMP280;31129;44.810;10.334;2023-04-24T11:56:46;99801.38;;;21.01
45393;BMP280;31129;44.810;10.334;2023-04-24T11:59:12;99803.22;;;21.31
45393;BMP280;31129;44.810;10.334;2023-04-24T12:01:44;99804.44;;;21.37
45393;BMP280;31129;44.810;10.334;2023-04-24T12:04:11;99799.28;;;21.59
45393;BMP280;31129;44.810;10.334;2023-04-24T12:06:37;99801.00;;;21.54
45393;BMP280;31129;44.810;10.334;2023-04-24T12:09:02;99805.97;;;21.31
45393;BMP280;31129;44.810;10.334;2023-04-24T12:11:27;99801.56;;;21.28
45393;BMP280;31129;44.810;10.334;2023-04-24T12:13:53;99802.81;;;21.52
45393;BMP280;31129;44.810;10.334;2023-04-24T12:16:19;99792.00;;;21.63
45393;BMP280;31129;44.810;10.334;2023-04-24T12:18:45;99795.31;;;21.87
45393;BMP280;31129;44.810;10.334;2023-04-24T12:21:15;99795.19;;;21.60
45393;BMP280;31129;44.810;10.334;2023-04-24T12:23:42;99800.78;;;21.52
45393;BMP280;31129;44.810;10.334;2023-04-24T12:26:15;99788.16;;;21.59
45393;BMP280;31129;44.810;10.334;2023-04-24T12:28:41;99786.47;;;21.63
45393;BMP280;31129;44.810;10.334;2023-04-24T12:31:07;99791.22;;;21.70
45393;BMP280;31129;44.810;10.334;2023-04-24T12:33:33;99792.09;;;21.73
45393;BMP280;31129;44.810;10.334;2023-04-24T12:35:59;99786.97;;;21.87
45393;BMP280;31129;44.810;10.334;2023-04-24T12:38:26;99790.78;;;21.91
45393;BMP280;31129;44.810;10.334;2023-04-24T12:41:03;99782.88;;;21.88
45393;BMP280;31129;44.810;10.334;2023-04-24T12:43:29;99782.38;;;22.16
45393;BMP280;31129;44.810;10.334;2023-04-24T12:46:05;99782.44;;;22.26
45393;BMP280;31129;44.810;10.334;2023-04-24T12:48:31;99783.97;;;22.36
45393;BMP280;31129;44.810;10.334;2023-04-24T12:51:00;99790.66;;;22.50
45393;BMP280;31129;44.810;10.334;2023-04-24T12:53:28;99791.63;;;22.72
45393;BMP280;31129;44.810;10.334;2023-04-24T12:55:55;99779.06;;;23.17
45393;BMP280;31129;44.810;10.334;2023-04-24T12:58:21;99781.16;;;23.17
45393;BMP280;31129;44.810;10.334;2023-04-24T13:00:47;99774.03;;;23.62
45393;BMP280;31129;44.810;10.334;2023-04-24T13:03:12;99764.50;;;24.03
45393;BMP280;31129;44.810;10.334;2023-04-24T13:05:38;99760.56;;;24.87
45393;BMP280;31129;44.810;10.334;2023-04-24T13:08:03;99749.38;;;24.66
45393;BMP280;31129;44.810;10.334;2023-04-24T13:10:29;99752.00;;;24.23
45393;BMP280;31129;44.810;10.334;2023-04-24T13:12:55;99753.78;;;24.09
45393;BMP280;31129;44.810;10.334;2023-04-24T13:15:20;99763.94;;;24.14
45393;BMP280;31129;44.810;10.334;2023-04-24T13:17:45;99764.50;;;24.63
45393;BMP280;31129;44.810;10.334;2023-04-24T13:20:11;99760.50;;;24.75
45393;BMP280;31129;44.810;10.334;2023-04-24T13:22:36;99764.84;;;24.88
45393;BMP280;31129;44.810;10.334;2023-04-24T13:25:02;99758.06;;;25.33
45393;BMP280;31129;44.810;10.334;2023-04-24T13:27:28;99758.97;;;25.90
45393;BMP280;31129;44.810;10.334;2023-04-24T13:29:56;99753.41;;;25.48
45393;BMP280;31129;44.810;10.334;2023-04-24T13:32:21;99764.97;;;25.42
45393;BMP280;31129;44.810;10.334;2023-04-24T13:34:47;99763.47;;;25.62
45393;BMP280;31129;44.810;10.334;2023-04-24T13:37:12;99757.41;;;25.99
45393;BMP280;31129;44.810;10.334;2023-04-24T13:39:38;99750.53;;;26.23
45393;BMP280;31129;44.810;10.334;2023-04-24T13:42:03;99752.94;;;26.17
45393;BMP280;31129;44.810;10.334;2023-04-24T13:44:28;99746.13;;;25.21
45393;BMP280;31129;44.810;10.334;2023-04-24T13:46:54;99740.19;;;24.84
45393;BMP280;31129;44.810;10.334;2023-04-24T13:49:23;99737.31;;;25.91
45393;BMP280;31129;44.810;10.334;2023-04-24T13:51:51;99733.13;;;26.24
45393;BMP280;31129;44.810;10.334;2023-04-24T13:54:16;99739.22;;;25.76
45393;BMP280;31129;44.810;10.334;2023-04-24T13:56:42;99728.91;;;25.25
45393;BMP280;31129;44.810;10.334;2023-04-24T13:59:08;99727.97;;;25.11
45393;BMP280;31129;44.810;10.334;2023-04-24T14:01:34;99718.09;;;24.88
45393;BMP280;31129;44.810;10.334;2023-04-24T14:03:59;99720.66;;;25.27
45393;BMP280;31129;44.810;10.334;2023-04-24T14:06:27;99730.69;;;25.42